createdAt,value
2023-03-30T00:03:55.218Z,65.77
2023-03-30T00:08:58.561Z,65.90
2023-03-30T00:14:01.142Z,66.41
2023-03-30T00:19:02.674Z,66.11
2023-03-30T00:24:04.324Z,66.21
2023-03-30T00:29:05.837Z,67.65
2023-03-30T00:34:07.360Z,68.21
2023-03-30T00:39:09.116Z,68.89
2023-03-30T00:44:48.497Z,69.54
2023-03-30T00:49:50.553Z,69.73
2023-03-30T00:54:54.180Z,71.08
2023-03-30T00:59:56.921Z,71.42
2023-03-30T01:04:58.487Z,72.23
2023-03-30T01:10:01.153Z,72.86
2023-03-30T01:15:02.771Z,73.40
2023-03-30T01:20:33.021Z,74.76
2023-03-30T01:25:53.061Z,74.90
2023-03-30T01:31:18.841Z,75.16
2023-03-30T01:36:48.545Z,76.07
2023-03-30T01:42:03.887Z,76.31
2023-03-30T01:47:16.351Z,76.75
2023-03-30T01:52:24.454Z,77.66
2023-03-30T01:57:34.011Z,79.50
2023-03-30T02:02:36.239Z,81.47
2023-03-30T02:07:40.166Z,81.29
2023-03-30T02:12:42.447Z,82.25
2023-03-30T02:17:46.041Z,84.44
2023-03-30T02:22:48.268Z,86.32
2023-03-30T02:27:50.304Z,87.06
2023-03-30T02:32:56.948Z,87.59
2023-03-30T02:38:41.742Z,88.47
2023-03-30T02:43:59.591Z,88.52
2023-03-30T02:49:16.727Z,88.27
2023-03-30T02:54:36.377Z,88.65
2023-03-30T03:00:08.826Z,89.94
2023-03-30T03:05:12.836Z,91.09
2023-03-30T03:10:36.285Z,91.44
2023-03-30T03:15:38.826Z,92.59
2023-03-30T03:20:43.231Z,93.46
2023-03-30T03:25:45.585Z,94.73
2023-03-30T03:30:49.807Z,95.80
2023-03-30T03:35:54.571Z,97.42
2023-03-30T03:40:59.177Z,97.42
2023-03-30T03:46:01.663Z,97.54
2023-03-30T03:51:03.627Z,97.50
2023-03-30T03:56:08.460Z,97.32
2023-03-30T04:01:10.468Z,97.43
2023-03-30T04:06:14.988Z,97.49
2023-03-30T04:11:17.770Z,98.57
2023-03-30T04:16:29.347Z,100.00
2023-03-30T04:21:55.667Z,100.00
2023-03-30T04:27:17.582Z,100.00
2023-03-30T04:32:47.172Z,100.00
2023-03-30T04:38:07.829Z,100.00
2023-03-30T04:43:29.948Z,100.00
2023-03-30T04:48:43.204Z,100.00
2023-03-30T04:54:21.152Z,100.00
2023-03-30T05:00:01.049Z,100.00
2023-03-30T05:05:22.556Z,100.00
2023-03-30T05:10:42.319Z,100.00
2023-03-30T05:16:03.070Z,100.00
2023-03-30T05:21:24.229Z,100.00
2023-03-30T05:26:48.660Z,100.00
2023-03-30T05:32:03.185Z,100.00
2023-03-30T05:37:20.612Z,100.00
2023-03-30T05:42:40.994Z,100.00
2023-03-30T05:47:56.167Z,100.00
2023-03-30T05:53:11.310Z,100.00
2023-03-30T05:58:18.878Z,100.00
2023-03-30T06:03:39.157Z,100.00
2023-03-30T06:08:44.945Z,100.00
2023-03-30T06:13:51.933Z,100.00
2023-03-30T06:18:53.769Z,100.00
2023-03-30T06:23:56.755Z,100.00
2023-03-30T06:29:02.433Z,100.00
2023-03-30T06:34:04.549Z,100.00
2023-03-30T06:39:06.736Z,100.00
2023-03-30T06:44:14.870Z,100.00
2023-03-30T06:49:17.192Z,100.00
2023-03-30T06:54:20.380Z,100.00
2023-03-30T06:59:28.944Z,100.00
2023-03-30T07:04:50.253Z,100.00
2023-03-30T07:10:14.727Z,100.00
2023-03-30T07:15:16.774Z,100.00
2023-03-30T07:20:20.428Z,100.00
2023-03-30T07:25:35.655Z,100.00
2023-03-30T07:30:45.678Z,100.00
2023-03-30T07:35:49.919Z,100.00
2023-03-30T07:40:56.662Z,100.00
2023-03-30T07:45:59.486Z,100.00
2023-03-30T07:51:11.566Z,100.00
2023-03-30T07:56:21.136Z,100.00
2023-03-30T08:01:25.579Z,100.00
2023-03-30T08:06:45.728Z,100.00
2023-03-30T08:11:47.503Z,100.00
2023-03-30T08:16:49.571Z,100.00
2023-03-30T08:21:51.235Z,100.00
2023-03-30T08:26:52.791Z,100.00
2023-03-30T08:31:54.550Z,100.00
2023-03-30T08:36:58.114Z,100.00
2023-03-30T08:42:12.574Z,100.00
2023-03-30T08:47:29.675Z,100.00
2023-03-30T08:52:32.977Z,100.00
2023-03-30T08:57:39.842Z,100.00
2023-03-30T09:02:48.131Z,100.00
2023-03-30T09:07:55.677Z,100.00
2023-03-30T09:13:01.478Z,100.00
2023-03-30T09:18:34.821Z,100.00
2023-03-30T09:23:40.035Z,100.00
2023-03-30T09:28:54.710Z,100.00
2023-03-30T09:34:17.877Z,100.00
2023-03-30T09:39:22.011Z,100.00
2023-03-30T09:45:14.907Z,100.00
2023-03-30T09:50:24.698Z,100.00
2023-03-30T09:55:31.249Z,100.00
2023-03-30T10:00:34.321Z,100.00
2023-03-30T10:05:38.532Z,100.00
2023-03-30T10:10:41.137Z,100.00
2023-03-30T10:15:51.296Z,100.00
2023-03-30T10:21:30.864Z,100.00
2023-03-30T10:26:34.627Z,100.00
2023-03-30T10:31:39.476Z,100.00
2023-03-30T10:36:41.119Z,100.00
2023-03-30T10:41:43.138Z,100.00
2023-03-30T10:46:45.511Z,100.00
2023-03-30T10:51:59.195Z,100.00
2023-03-30T10:57:13.856Z,100.00
2023-03-30T11:02:41.677Z,100.00
2023-03-30T11:08:04.014Z,100.00
2023-03-30T11:13:14.115Z,100.00
2023-03-30T11:18:42.682Z,100.00
2023-03-30T11:23:54.749Z,100.00
2023-03-30T11:29:21.724Z,100.00
2023-03-30T11:34:31.165Z,100.00
2023-03-30T11:39:41.458Z,100.00
2023-03-30T11:44:43.648Z,94.70
2023-03-30T11:49:53.468Z,95.83
2023-03-30T11:55:13.802Z,92.92
2023-03-30T12:00:46.092Z,96.84
2023-03-30T12:06:04.263Z,98.84
2023-03-30T12:11:16.383Z,95.91
2023-03-30T12:16:26.916Z,92.77
2023-03-30T12:21:53.520Z,93.67
2023-03-30T12:27:05.035Z,89.76
2023-03-30T12:32:20.000Z,86.29
2023-03-30T12:37:28.603Z,89.01
2023-03-30T12:42:36.747Z,88.70
2023-03-30T12:47:42.311Z,88.16
2023-03-30T12:53:04.064Z,89.26
2023-03-30T12:58:43.610Z,98.54
2023-03-30T13:03:52.770Z,100.00
2023-03-30T13:09:02.046Z,100.00
2023-03-30T13:14:27.170Z,100.00
2023-03-30T13:19:34.026Z,100.00
2023-03-30T13:25:00.659Z,100.00
2023-03-30T13:30:17.007Z,100.00
2023-03-30T13:35:37.025Z,100.00
2023-03-30T13:40:54.590Z,100.00
2023-03-30T13:46:27.078Z,100.00
2023-03-30T13:51:30.716Z,100.00
2023-03-30T13:56:38.062Z,100.00
2023-03-30T14:01:40.365Z,100.00
2023-03-30T14:06:49.592Z,100.00
2023-03-30T14:11:58.377Z,100.00
2023-03-30T14:17:02.388Z,100.00
2023-03-30T14:22:21.035Z,100.00
2023-03-30T14:27:22.743Z,100.00
2023-03-30T14:32:26.949Z,100.00
2023-03-30T14:37:30.689Z,100.00
2023-03-30T14:42:39.385Z,100.00
2023-03-30T14:47:41.046Z,100.00
2023-03-30T14:52:46.710Z,100.00
2023-03-30T14:57:49.263Z,100.00
2023-03-30T15:02:59.611Z,100.00
2023-03-30T15:08:03.184Z,100.00
2023-03-30T15:13:07.595Z,100.00
2023-03-30T15:18:20.243Z,100.00
2023-03-30T15:23:24.552Z,94.56
2023-03-30T15:28:30.722Z,95.58
2023-03-30T15:33:36.475Z,98.07
2023-03-30T15:38:54.662Z,98.70
2023-03-30T15:44:10.860Z,99.97
2023-03-30T15:49:16.270Z,98.24
2023-03-30T15:54:36.243Z,96.15
2023-03-30T15:59:41.764Z,96.31
2023-03-30T16:04:43.664Z,95.45
2023-03-30T16:09:45.757Z,94.29
2023-03-30T16:14:48.644Z,91.35
2023-03-30T16:19:50.339Z,94.40
2023-03-30T16:24:53.265Z,94.19
2023-03-30T16:29:54.808Z,95.38
2023-03-30T16:34:56.506Z,96.43
2023-03-30T16:39:58.117Z,96.90
2023-03-30T16:44:59.701Z,98.21
2023-03-30T16:50:01.223Z,98.03
2023-03-30T16:55:02.750Z,98.04
2023-03-30T17:00:16.075Z,98.25
2023-03-30T17:05:17.910Z,96.93
2023-03-30T17:10:28.963Z,96.33
2023-03-30T17:15:30.742Z,97.23
2023-03-30T17:20:41.611Z,100.00
2023-03-30T17:25:47.503Z,100.00
2023-03-30T17:30:52.909Z,100.00
2023-03-30T17:36:00.814Z,100.00
2023-03-30T17:41:02.773Z,100.00
2023-03-30T17:46:05.598Z,100.00
2023-03-30T17:51:07.739Z,100.00
2023-03-30T17:56:13.129Z,100.00
2023-03-30T18:01:16.701Z,100.00
2023-03-30T18:06:18.273Z,100.00
2023-03-30T18:11:19.853Z,100.00
2023-03-30T18:16:24.338Z,100.00
2023-03-30T18:21:25.912Z,100.00
2023-03-30T18:26:27.519Z,100.00
2023-03-30T18:31:29.098Z,100.00
2023-03-30T18:36:30.715Z,100.00
2023-03-30T18:41:32.229Z,100.00
2023-03-30T18:46:33.895Z,100.00
2023-03-30T18:51:35.533Z,100.00
2023-03-30T18:56:37.857Z,100.00
2023-03-30T19:01:40.216Z,100.00
2023-03-30T19:06:44.348Z,100.00
2023-03-30T19:11:45.975Z,100.00
2023-03-30T19:16:47.546Z,100.00
2023-03-30T19:21:49.183Z,100.00
2023-03-30T19:26:50.795Z,100.00
2023-03-30T19:31:53.842Z,100.00
2023-03-30T19:36:55.522Z,99.65
2023-03-30T19:41:57.187Z,99.52
2023-03-30T19:46:58.726Z,99.19
2023-03-30T19:52:00.274Z,99.43
2023-03-30T19:57:02.209Z,98.93
2023-03-30T20:02:03.891Z,98.50
2023-03-30T20:07:05.519Z,97.95
2023-03-30T20:12:07.747Z,96.80
2023-03-30T20:17:11.263Z,96.65
2023-03-30T20:22:12.865Z,97.29
2023-03-30T20:27:17.087Z,98.45
2023-03-30T20:32:18.737Z,98.72
2023-03-30T20:37:20.328Z,100.00
2023-03-30T20:42:26.364Z,100.00
2023-03-30T20:47:30.463Z,100.00
2023-03-30T20:52:33.565Z,100.00
2023-03-30T20:57:35.380Z,100.00
2023-03-30T21:02:36.985Z,98.60
2023-03-30T21:07:42.209Z,98.09
2023-03-30T21:12:43.801Z,96.36
2023-03-30T21:17:45.512Z,95.33
2023-03-30T21:22:47.046Z,94.34
2023-03-30T21:27:48.621Z,93.55
2023-03-30T21:32:50.193Z,92.91
2023-03-30T21:37:51.801Z,92.59
2023-03-30T21:42:53.351Z,91.45
2023-03-30T21:47:54.896Z,90.21
2023-03-30T21:52:58.148Z,89.95
2023-03-30T21:57:59.677Z,89.85
2023-03-30T22:03:01.303Z,89.22
2023-03-30T22:08:02.872Z,88.09
2023-03-30T22:13:04.918Z,86.78
2023-03-30T22:18:07.023Z,87.32
2023-03-30T22:23:08.642Z,87.54
2023-03-30T22:28:11.990Z,87.81
2023-03-30T22:33:14.410Z,88.09
2023-03-30T22:38:16.550Z,88.08
2023-03-30T22:43:18.163Z,88.43
2023-03-30T22:48:19.712Z,87.99
2023-03-30T22:53:21.231Z,87.06
2023-03-30T22:58:22.764Z,86.93
2023-03-30T23:03:24.355Z,86.35
2023-03-30T23:08:25.879Z,86.18
2023-03-30T23:13:27.421Z,86.04
2023-03-30T23:18:29.047Z,88.07
2023-03-30T23:23:30.568Z,88.70
2023-03-30T23:28:32.092Z,88.27
2023-03-30T23:33:33.676Z,87.37
2023-03-30T23:38:37.603Z,86.99
2023-03-30T23:43:39.326Z,86.84
2023-03-30T23:48:41.995Z,87.25
2023-03-30T23:53:43.662Z,87.41
2023-03-30T23:58:45.401Z,87.54
